sensor_id;sensor_type;location;lat;lon;timestamp;temperature;humidity
14877;DHT22;69691;48.172;17.070;2023-12-07T00:01:55;3.40;94.40
14877;DHT22;69691;48.172;17.070;2023-12-07T00:04:23;3.40;94.20
14877;DHT22;69691;48.172;17.070;2023-12-07T00:06:48;3.30;94.20
14877;DHT22;69691;48.172;17.070;2023-12-07T00:09:14;3.20;94.30
14877;DHT22;69691;48.172;17.070;2023-12-07T00:11:40;3.20;94.40
14877;DHT22;69691;48.172;17.070;2023-12-07T00:14:06;3.20;94.60
14877;DHT22;69691;48.172;17.070;2023-12-07T00:16:32;3.10;94.50
14877;DHT22;69691;48.172;17.070;2023-12-07T00:18:57;3.10;94.70
14877;DHT22;69691;48.172;17.070;2023-12-07T00:21:23;3.20;94.70
14877;DHT22;69691;48.172;17.070;2023-12-07T00:23:49;3.10;94.60
14877;DHT22;69691;48.172;17.070;2023-12-07T00:26:15;3.00;94.70
14877;DHT22;69691;48.172;17.070;2023-12-07T00:28:41;3.00;94.80
14877;DHT22;69691;48.172;17.070;2023-12-07T00:31:07;3.00;94.90
14877;DHT22;69691;48.172;17.070;2023-12-07T00:33:33;3.00;94.90
14877;DHT22;69691;48.172;17.070;2023-12-07T00:36:00;3.00;94.90
14877;DHT22;69691;48.172;17.070;2023-12-07T00:38:26;3.10;95.10
14877;DHT22;69691;48.172;17.070;2023-12-07T00:40:52;3.20;95.20
14877;DHT22;69691;48.172;17.070;2023-12-07T00:43:17;3.20;95.00
14877;DHT22;69691;48.172;17.070;2023-12-07T00:45:44;3.20;94.90
14877;DHT22;69691;48.172;17.070;2023-12-07T00:48:09;3.30;94.90
14877;DHT22;69691;48.172;17.070;2023-12-07T00:50:35;3.30;94.60
14877;DHT22;69691;48.172;17.070;2023-12-07T00:53:01;3.30;94.80
14877;DHT22;69691;48.172;17.070;2023-12-07T00:55:27;3.30;94.70
14877;DHT22;69691;48.172;17.070;2023-12-07T00:57:52;3.30;94.70
14877;DHT22;69691;48.172;17.070;2023-12-07T01:00:18;3.40;94.90
14877;DHT22;69691;48.172;17.070;2023-12-07T01:02:44;3.30;94.80
14877;DHT22;69691;48.172;17.070;2023-12-07T01:05:10;3.30;94.80
14877;DHT22;69691;48.172;17.070;2023-12-07T01:07:36;3.30;95.00
14877;DHT22;69691;48.172;17.070;2023-12-07T01:10:02;3.30;94.90
14877;DHT22;69691;48.172;17.070;2023-12-07T01:12:30;3.30;95.10
14877;DHT22;69691;48.172;17.070;2023-12-07T01:14:55;3.40;95.10
14877;DHT22;69691;48.172;17.070;2023-12-07T01:17:21;3.50;94.80
14877;DHT22;69691;48.172;17.070;2023-12-07T01:19:47;3.50;94.80
14877;DHT22;69691;48.172;17.070;2023-12-07T01:22:13;3.50;94.40
14877;DHT22;69691;48.172;17.070;2023-12-07T01:24:38;3.50;94.60
14877;DHT22;69691;48.172;17.070;2023-12-07T01:27:04;3.50;94.50
14877;DHT22;69691;48.172;17.070;2023-12-07T01:29:30;3.50;94.70
14877;DHT22;69691;48.172;17.070;2023-12-07T01:31:56;3.50;94.60
14877;DHT22;69691;48.172;17.070;2023-12-07T01:34:21;3.50;94.50
14877;DHT22;69691;48.172;17.070;2023-12-07T01:36:47;3.50;94.70
14877;DHT22;69691;48.172;17.070;2023-12-07T01:39:13;3.50;94.60
14877;DHT22;69691;48.172;17.070;2023-12-07T01:41:40;3.40;94.70
14877;DHT22;69691;48.172;17.070;2023-12-07T01:44:05;3.40;94.80
14877;DHT22;69691;48.172;17.070;2023-12-07T01:46:32;3.40;94.60
14877;DHT22;69691;48.172;17.070;2023-12-07T01:48:59;3.40;94.90
14877;DHT22;69691;48.172;17.070;2023-12-07T01:51:25;3.50;94.80
14877;DHT22;69691;48.172;17.070;2023-12-07T01:53:52;3.50;94.60
14877;DHT22;69691;48.172;17.070;2023-12-07T01:56:18;3.60;94.60
14877;DHT22;69691;48.172;17.070;2023-12-07T01:58:44;3.60;94.60
14877;DHT22;69691;48.172;17.070;2023-12-07T02:01:10;3.60;94.60
14877;DHT22;69691;48.172;17.070;2023-12-07T02:03:41;3.60;94.30
14877;DHT22;69691;48.172;17.070;2023-12-07T02:06:07;3.60;94.50
14877;DHT22;69691;48.172;17.070;2023-12-07T02:08:35;3.60;94.40
14877;DHT22;69691;48.172;17.070;2023-12-07T02:11:01;3.60;94.40
14877;DHT22;69691;48.172;17.070;2023-12-07T02:13:27;3.60;94.50
14877;DHT22;69691;48.172;17.070;2023-12-07T02:15:56;3.70;94.60
14877;DHT22;69691;48.172;17.070;2023-12-07T02:18:40;3.70;94.50
14877;DHT22;69691;48.172;17.070;2023-12-07T02:21:18;3.80;94.60
14877;DHT22;69691;48.172;17.070;2023-12-07T02:23:49;3.80;94.40
14877;DHT22;69691;48.172;17.070;2023-12-07T02:26:43;3.80;94.30
14877;DHT22;69691;48.172;17.070;2023-12-07T02:29:09;3.80;94.20
14877;DHT22;69691;48.172;17.070;2023-12-07T02:31:35;3.80;94.20
14877;DHT22;69691;48.172;17.070;2023-12-07T02:34:01;3.80;94.50
14877;DHT22;69691;48.172;17.070;2023-12-07T02:36:28;3.80;94.30
14877;DHT22;69691;48.172;17.070;2023-12-07T02:38:59;3.80;94.20
14877;DHT22;69691;48.172;17.070;2023-12-07T02:41:30;3.80;94.30
14877;DHT22;69691;48.172;17.070;2023-12-07T02:43:57;3.70;94.30
14877;DHT22;69691;48.172;17.070;2023-12-07T02:46:26;3.70;94.80
14877;DHT22;69691;48.172;17.070;2023-12-07T02:48:52;3.70;94.70
14877;DHT22;69691;48.172;17.070;2023-12-07T02:51:18;3.60;94.70
14877;DHT22;69691;48.172;17.070;2023-12-07T02:53:44;3.70;94.80
14877;DHT22;69691;48.172;17.070;2023-12-07T02:56:10;3.80;94.70
14877;DHT22;69691;48.172;17.070;2023-12-07T02:58:36;3.80;94.50
14877;DHT22;69691;48.172;17.070;2023-12-07T03:01:02;3.90;94.60
14877;DHT22;69691;48.172;17.070;2023-12-07T03:03:27;3.80;94.40
14877;DHT22;69691;48.172;17.070;2023-12-07T03:05:53;3.70;94.60
14877;DHT22;69691;48.172;17.070;2023-12-07T03:08:19;3.80;94.90
14877;DHT22;69691;48.172;17.070;2023-12-07T03:10:45;3.80;94.80
14877;DHT22;69691;48.172;17.070;2023-12-07T03:13:11;3.80;94.70
14877;DHT22;69691;48.172;17.070;2023-12-07T03:15:37;3.70;94.60
14877;DHT22;69691;48.172;17.070;2023-12-07T03:18:03;3.70;94.80
14877;DHT22;69691;48.172;17.070;2023-12-07T03:20:29;3.80;94.90
14877;DHT22;69691;48.172;17.070;2023-12-07T03:22:55;3.80;94.90
14877;DHT22;69691;48.172;17.070;2023-12-07T03:25:21;3.80;94.60
14877;DHT22;69691;48.172;17.070;2023-12-07T03:27:47;3.90;94.80
14877;DHT22;69691;48.172;17.070;2023-12-07T03:30:13;3.80;94.70
14877;DHT22;69691;48.172;17.070;2023-12-07T03:32:38;3.80;94.90
14877;DHT22;69691;48.172;17.070;2023-12-07T03:35:05;3.80;94.80
14877;DHT22;69691;48.172;17.070;2023-12-07T03:37:31;3.80;94.90
14877;DHT22;69691;48.172;17.070;2023-12-07T03:39:56;3.80;94.80
14877;DHT22;69691;48.172;17.070;2023-12-07T03:42:22;3.80;95.00
14877;DHT22;69691;48.172;17.070;2023-12-07T03:44:48;3.90;95.10
14877;DHT22;69691;48.172;17.070;2023-12-07T03:47:14;3.90;95.00
14877;DHT22;69691;48.172;17.070;2023-12-07T03:49:40;3.80;95.00
14877;DHT22;69691;48.172;17.070;2023-12-07T03:52:06;3.90;95.10
14877;DHT22;69691;48.172;17.070;2023-12-07T03:54:32;4.00;94.80
14877;DHT22;69691;48.172;17.070;2023-12-07T03:56:58;4.00;94.80
14877;DHT22;69691;48.172;17.070;2023-12-07T03:59:24;4.00;94.70
14877;DHT22;69691;48.172;17.070;2023-12-07T04:01:50;4.00;94.80
14877;DHT22;69691;48.172;17.070;2023-12-07T04:04:15;4.10;95.00
14877;DHT22;69691;48.172;17.070;2023-12-07T04:06:41;4.10;94.60
14877;DHT22;69691;48.172;17.070;2023-12-07T04:09:07;4.10;94.60
14877;DHT22;69691;48.172;17.070;2023-12-07T04:11:33;4.10;94.70
14877;DHT22;69691;48.172;17.070;2023-12-07T04:13:59;4.20;94.60
14877;DHT22;69691;48.172;17.070;2023-12-07T04:16:25;4.20;94.30
14877;DHT22;69691;48.172;17.070;2023-12-07T04:18:51;4.20;94.30
14877;DHT22;69691;48.172;17.070;2023-12-07T04:21:17;4.30;94.30
14877;DHT22;69691;48.172;17.070;2023-12-07T04:23:43;4.30;94.30
14877;DHT22;69691;48.172;17.070;2023-12-07T04:26:09;4.30;94.00
14877;DHT22;69691;48.172;17.070;2023-12-07T04:28:34;4.30;94.00
14877;DHT22;69691;48.172;17.070;2023-12-07T04:31:00;4.40;94.20
14877;DHT22;69691;48.172;17.070;2023-12-07T04:33:26;4.40;93.80
14877;DHT22;69691;48.172;17.070;2023-12-07T04:35:52;4.50;93.80
14877;DHT22;69691;48.172;17.070;2023-12-07T04:38:18;4.40;93.60
14877;DHT22;69691;48.172;17.070;2023-12-07T04:40:43;4.40;93.60
14877;DHT22;69691;48.172;17.070;2023-12-07T04:43:09;4.40;93.50
14877;DHT22;69691;48.172;17.070;2023-12-07T04:45:35;4.40;93.70
14877;DHT22;69691;48.172;17.070;2023-12-07T04:48:01;4.40;93.50
14877;DHT22;69691;48.172;17.070;2023-12-07T04:50:28;4.50;93.40
14877;DHT22;69691;48.172;17.070;2023-12-07T04:52:53;4.40;93.30
14877;DHT22;69691;48.172;17.070;2023-12-07T04:55:20;4.40;93.40
14877;DHT22;69691;48.172;17.070;2023-12-07T04:57:46;4.40;93.40
14877;DHT22;69691;48.172;17.070;2023-12-07T05:00:12;4.40;93.40
14877;DHT22;69691;48.172;17.070;2023-12-07T05:02:39;4.40;93.30
14877;DHT22;69691;48.172;17.070;2023-12-07T05:05:05;4.40;93.30
14877;DHT22;69691;48.172;17.070;2023-12-07T05:07:31;4.40;93.20
14877;DHT22;69691;48.172;17.070;2023-12-07T05:09:57;4.40;93.30
14877;DHT22;69691;48.172;17.070;2023-12-07T05:12:23;4.40;93.20
14877;DHT22;69691;48.172;17.070;2023-12-07T05:14:48;4.40;93.30
14877;DHT22;69691;48.172;17.070;2023-12-07T05:17:15;4.40;93.30
14877;DHT22;69691;48.172;17.070;2023-12-07T05:19:41;4.50;93.30
14877;DHT22;69691;48.172;17.070;2023-12-07T05:22:07;4.50;93.00
14877;DHT22;69691;48.172;17.070;2023-12-07T05:24:35;4.50;93.00
14877;DHT22;69691;48.172;17.070;2023-12-07T05:27:00;4.50;93.20
14877;DHT22;69691;48.172;17.070;2023-12-07T05:29:26;4.50;93.10
14877;DHT22;69691;48.172;17.070;2023-12-07T05:31:52;4.50;93.00
14877;DHT22;69691;48.172;17.070;2023-12-07T05:34:18;4.50;93.00
14877;DHT22;69691;48.172;17.070;2023-12-07T05:36:44;4.60;93.00
14877;DHT22;69691;48.172;17.070;2023-12-07T05:39:12;4.60;92.90
14877;DHT22;69691;48.172;17.070;2023-12-07T05:41:39;4.60;92.80
14877;DHT22;69691;48.172;17.070;2023-12-07T05:44:04;4.60;92.80
14877;DHT22;69691;48.172;17.070;2023-12-07T05:46:32;4.50;92.80
14877;DHT22;69691;48.172;17.070;2023-12-07T05:49:00;4.50;92.80
14877;DHT22;69691;48.172;17.070;2023-12-07T05:51:26;4.50;92.70
14877;DHT22;69691;48.172;17.070;2023-12-07T05:53:52;4.50;92.80
14877;DHT22;69691;48.172;17.070;2023-12-07T05:56:19;4.50;92.80
14877;DHT22;69691;48.172;17.070;2023-12-07T05:58:48;4.50;92.80
14877;DHT22;69691;48.172;17.070;2023-12-07T06:01:17;4.60;92.80
14877;DHT22;69691;48.172;17.070;2023-12-07T06:03:43;4.60;92.80
14877;DHT22;69691;48.172;17.070;2023-12-07T06:06:13;4.60;92.60
14877;DHT22;69691;48.172;17.070;2023-12-07T06:08:38;4.50;92.70
14877;DHT22;69691;48.172;17.070;2023-12-07T06:11:04;4.60;92.70
14877;DHT22;69691;48.172;17.070;2023-12-07T06:13:31;4.60;92.70
14877;DHT22;69691;48.172;17.070;2023-12-07T06:15:57;4.70;92.80
14877;DHT22;69691;48.172;17.070;2023-12-07T06:18:23;4.70;92.50
14877;DHT22;69691;48.172;17.070;2023-12-07T06:20:48;4.70;92.20
14877;DHT22;69691;48.172;17.070;2023-12-07T06:23:14;4.70;92.30
14877;DHT22;69691;48.172;17.070;2023-12-07T06:25:40;4.60;92.10
14877;DHT22;69691;48.172;17.070;2023-12-07T06:28:06;4.60;92.30
14877;DHT22;69691;48.172;17.070;2023-12-07T06:30:32;4.60;92.40
14877;DHT22;69691;48.172;17.070;2023-12-07T06:32:58;4.60;92.40
14877;DHT22;69691;48.172;17.070;2023-12-07T06:35:23;4.60;92.30
14877;DHT22;69691;48.172;17.070;2023-12-07T06:37:49;4.60;92.30
14877;DHT22;69691;48.172;17.070;2023-12-07T06:40:15;4.70;92.60
14877;DHT22;69691;48.172;17.070;2023-12-07T06:42:41;4.80;92.40
14877;DHT22;69691;48.172;17.070;2023-12-07T06:45:07;4.80;92.20
14877;DHT22;69691;48.172;17.070;2023-12-07T06:47:39;4.80;92.10
14877;DHT22;69691;48.172;17.070;2023-12-07T06:50:06;4.80;91.90
14877;DHT22;69691;48.172;17.070;2023-12-07T06:52:36;4.80;92.00
14877;DHT22;69691;48.172;17.070;2023-12-07T06:55:02;4.80;91.80
14877;DHT22;69691;48.172;17.070;2023-12-07T06:57:28;4.90;91.80
14877;DHT22;69691;48.172;17.070;2023-12-07T06:59:54;4.90;91.70
14877;DHT22;69691;48.172;17.070;2023-12-07T07:02:19;4.80;91.70
14877;DHT22;69691;48.172;17.070;2023-12-07T07:04:45;4.80;91.70
14877;DHT22;69691;48.172;17.070;2023-12-07T07:07:14;4.80;91.80
14877;DHT22;69691;48.172;17.070;2023-12-07T07:09:41;4.80;91.80
14877;DHT22;69691;48.172;17.070;2023-12-07T07:12:06;4.80;91.80
14877;DHT22;69691;48.172;17.070;2023-12-07T07:14:32;4.80;92.30
14877;DHT22;69691;48.172;17.070;2023-12-07T07:16:58;4.80;92.10
14877;DHT22;69691;48.172;17.070;2023-12-07T07:19:24;4.90;91.90
14877;DHT22;69691;48.172;17.070;2023-12-07T07:21:50;4.90;91.90
14877;DHT22;69691;48.172;17.070;2023-12-07T07:24:15;5.00;91.90
14877;DHT22;69691;48.172;17.070;2023-12-07T07:26:41;5.00;91.60
14877;DHT22;69691;48.172;17.070;2023-12-07T07:29:07;5.00;91.70
14877;DHT22;69691;48.172;17.070;2023-12-07T07:31:33;5.00;91.70
14877;DHT22;69691;48.172;17.070;2023-12-07T07:34:01;5.00;91.50
14877;DHT22;69691;48.172;17.070;2023-12-07T07:36:26;4.90;91.70
14877;DHT22;69691;48.172;17.070;2023-12-07T07:38:52;4.90;91.50
14877;DHT22;69691;48.172;17.070;2023-12-07T07:41:18;5.00;91.80
14877;DHT22;69691;48.172;17.070;2023-12-07T07:43:44;5.00;91.60
14877;DHT22;69691;48.172;17.070;2023-12-07T07:46:10;5.00;91.50
14877;DHT22;69691;48.172;17.070;2023-12-07T07:48:36;5.00;91.70
14877;DHT22;69691;48.172;17.070;2023-12-07T07:51:03;5.10;91.50
14877;DHT22;69691;48.172;17.070;2023-12-07T07:53:29;5.10;91.40
14877;DHT22;69691;48.172;17.070;2023-12-07T07:55:55;5.10;91.20
14877;DHT22;69691;48.172;17.070;2023-12-07T07:58:20;5.20;91.30
14877;DHT22;69691;48.172;17.070;2023-12-07T08:00:46;5.20;91.30
14877;DHT22;69691;48.172;17.070;2023-12-07T08:03:12;5.30;91.20
14877;DHT22;69691;48.172;17.070;2023-12-07T08:05:38;5.40;90.90
14877;DHT22;69691;48.172;17.070;2023-12-07T08:08:04;5.40;91.00
14877;DHT22;69691;48.172;17.070;2023-12-07T08:10:30;5.50;90.80
14877;DHT22;69691;48.172;17.070;2023-12-07T08:12:56;5.50;90.60
14877;DHT22;69691;48.172;17.070;2023-12-07T08:15:21;5.50;90.50
14877;DHT22;69691;48.172;17.070;2023-12-07T08:17:47;5.40;90.20
14877;DHT22;69691;48.172;17.070;2023-12-07T08:20:13;5.40;90.30
14877;DHT22;69691;48.172;17.070;2023-12-07T08:22:40;5.30;90.50
14877;DHT22;69691;48.172;17.070;2023-12-07T08:25:07;5.40;90.70
14877;DHT22;69691;48.172;17.070;2023-12-07T08:27:36;5.40;90.40
14877;DHT22;69691;48.172;17.070;2023-12-07T08:30:03;5.50;90.30
14877;DHT22;69691;48.172;17.070;2023-12-07T08:32:30;5.60;90.40
14877;DHT22;69691;48.172;17.070;2023-12-07T08:34:55;5.80;90.00
14877;DHT22;69691;48.172;17.070;2023-12-07T08:37:21;5.80;90.10
14877;DHT22;69691;48.172;17.070;2023-12-07T08:39:47;5.90;89.70
14877;DHT22;69691;48.172;17.070;2023-12-07T08:42:13;5.90;89.60
14877;DHT22;69691;48.172;17.070;2023-12-07T08:44:39;5.90;89.50
14877;DHT22;69691;48.172;17.070;2023-12-07T08:47:06;6.00;89.70
14877;DHT22;69691;48.172;17.070;2023-12-07T08:49:32;6.10;89.20
14877;DHT22;69691;48.172;17.070;2023-12-07T08:51:58;6.30;89.20
14877;DHT22;69691;48.172;17.070;2023-12-07T08:54:24;6.20;88.20
14877;DHT22;69691;48.172;17.070;2023-12-07T08:56:51;6.30;87.90
14877;DHT22;69691;48.172;17.070;2023-12-07T08:59:17;6.30;88.40
14877;DHT22;69691;48.172;17.070;2023-12-07T09:01:42;6.50;88.30
14877;DHT22;69691;48.172;17.070;2023-12-07T09:04:08;6.50;87.70
14877;DHT22;69691;48.172;17.070;2023-12-07T09:06:35;6.50;87.70
14877;DHT22;69691;48.172;17.070;2023-12-07T09:09:03;6.60;88.40
14877;DHT22;69691;48.172;17.070;2023-12-07T09:11:32;6.70;88.70
14877;DHT22;69691;48.172;17.070;2023-12-07T09:13:58;6.80;88.20
14877;DHT22;69691;48.172;17.070;2023-12-07T09:16:24;6.80;88.00
14877;DHT22;69691;48.172;17.070;2023-12-07T09:18:51;6.90;88.00
14877;DHT22;69691;48.172;17.070;2023-12-07T09:21:17;6.90;87.80
14877;DHT22;69691;48.172;17.070;2023-12-07T09:23:43;6.80;86.20
14877;DHT22;69691;48.172;17.070;2023-12-07T09:26:10;6.70;86.40
14877;DHT22;69691;48.172;17.070;2023-12-07T09:28:36;6.60;87.80
14877;DHT22;69691;48.172;17.070;2023-12-07T09:31:02;6.40;87.80
14877;DHT22;69691;48.172;17.070;2023-12-07T09:33:28;6.40;89.10
14877;DHT22;69691;48.172;17.070;2023-12-07T09:35:54;6.40;88.20
14877;DHT22;69691;48.172;17.070;2023-12-07T09:38:19;6.30;88.80
14877;DHT22;69691;48.172;17.070;2023-12-07T09:40:46;6.30;89.50
14877;DHT22;69691;48.172;17.070;2023-12-07T09:43:12;6.20;89.60
14877;DHT22;69691;48.172;17.070;2023-12-07T09:45:38;6.20;89.70
14877;DHT22;69691;48.172;17.070;2023-12-07T09:48:05;6.20;89.70
14877;DHT22;69691;48.172;17.070;2023-12-07T09:50:33;6.10;89.10
14877;DHT22;69691;48.172;17.070;2023-12-07T09:52:59;6.20;90.00
14877;DHT22;69691;48.172;17.070;2023-12-07T09:55:25;6.20;89.40
14877;DHT22;69691;48.172;17.070;2023-12-07T09:57:51;6.20;89.20
14877;DHT22;69691;48.172;17.070;2023-12-07T10:00:20;6.40;89.20
14877;DHT22;69691;48.172;17.070;2023-12-07T10:02:46;6.50;88.30
14877;DHT22;69691;48.172;17.070;2023-12-07T10:05:13;6.50;87.50
14877;DHT22;69691;48.172;17.070;2023-12-07T10:07:43;6.50;87.40
14877;DHT22;69691;48.172;17.070;2023-12-07T10:10:12;6.50;87.20
14877;DHT22;69691;48.172;17.070;2023-12-07T10:15:16;6.50;87.20
14877;DHT22;69691;48.172;17.070;2023-12-07T10:18:09;6.50;86.40
14877;DHT22;69691;48.172;17.070;2023-12-07T10:20:34;6.70;86.40
14877;DHT22;69691;48.172;17.070;2023-12-07T10:23:03;6.80;85.70
14877;DHT22;69691;48.172;17.070;2023-12-07T10:25:36;6.80;84.60
14877;DHT22;69691;48.172;17.070;2023-12-07T10:28:04;6.90;84.90
14877;DHT22;69691;48.172;17.070;2023-12-07T10:30:33;7.00;83.50
14877;DHT22;69691;48.172;17.070;2023-12-07T10:33:02;6.90;83.40
14877;DHT22;69691;48.172;17.070;2023-12-07T10:35:29;6.90;82.80
14877;DHT22;69691;48.172;17.070;2023-12-07T10:37:55;6.90;82.80
14877;DHT22;69691;48.172;17.070;2023-12-07T10:40:21;6.80;83.40
14877;DHT22;69691;48.172;17.070;2023-12-07T10:42:54;6.80;83.20
14877;DHT22;69691;48.172;17.070;2023-12-07T10:45:24;6.70;82.20
14877;DHT22;69691;48.172;17.070;2023-12-07T10:47:51;6.60;83.20
14877;DHT22;69691;48.172;17.070;2023-12-07T10:50:23;6.70;83.30
14877;DHT22;69691;48.172;17.070;2023-12-07T10:52:52;6.70;83.50
14877;DHT22;69691;48.172;17.070;2023-12-07T10:55:21;6.70;82.60
14877;DHT22;69691;48.172;17.070;2023-12-07T10:57:53;6.80;83.00
14877;DHT22;69691;48.172;17.070;2023-12-07T11:00:22;6.80;82.60
14877;DHT22;69691;48.172;17.070;2023-12-07T11:02:50;6.80;82.20
14877;DHT22;69691;48.172;17.070;2023-12-07T11:05:17;6.80;81.90
14877;DHT22;69691;48.172;17.070;2023-12-07T11:10:47;7.00;82.50
14877;DHT22;69691;48.172;17.070;2023-12-07T11:13:26;7.00;81.40
14877;DHT22;69691;48.172;17.070;2023-12-07T11:15:54;7.10;81.50
14877;DHT22;69691;48.172;17.070;2023-12-07T11:18:21;7.10;80.70
14877;DHT22;69691;48.172;17.070;2023-12-07T11:20:47;7.00;80.10
14877;DHT22;69691;48.172;17.070;2023-12-07T11:23:18;7.10;80.60
14877;DHT22;69691;48.172;17.070;2023-12-07T11:25:46;7.10;80.50
14877;DHT22;69691;48.172;17.070;2023-12-07T11:28:14;7.00;79.80
14877;DHT22;69691;48.172;17.070;2023-12-07T11:30:45;6.90;80.10
14877;DHT22;69691;48.172;17.070;2023-12-07T11:33:11;6.90;79.90
14877;DHT22;69691;48.172;17.070;2023-12-07T11:38:29;7.10;79.60
14877;DHT22;69691;48.172;17.070;2023-12-07T11:40:56;7.00;79.50
14877;DHT22;69691;48.172;17.070;2023-12-07T11:46:09;7.10;79.40
14877;DHT22;69691;48.172;17.070;2023-12-07T11:48:35;7.10;79.40
14877;DHT22;69691;48.172;17.070;2023-12-07T11:51:08;7.10;80.70
14877;DHT22;69691;48.172;17.070;2023-12-07T11:53:37;7.30;79.70
14877;DHT22;69691;48.172;17.070;2023-12-07T11:56:04;7.30;79.10
14877;DHT22;69691;48.172;17.070;2023-12-07T11:58:32;7.30;79.30
14877;DHT22;69691;48.172;17.070;2023-12-07T12:00:59;7.50;78.90
14877;DHT22;69691;48.172;17.070;2023-12-07T12:03:27;7.50;77.80
14877;DHT22;69691;48.172;17.070;2023-12-07T12:05:53;7.50;77.40
14877;DHT22;69691;48.172;17.070;2023-12-07T12:08:20;7.50;77.10
14877;DHT22;69691;48.172;17.070;2023-12-07T12:10:47;7.50;76.80
14877;DHT22;69691;48.172;17.070;2023-12-07T12:13:16;7.50;76.90
14877;DHT22;69691;48.172;17.070;2023-12-07T12:15:42;7.50;76.70
14877;DHT22;69691;48.172;17.070;2023-12-07T12:18:09;7.50;77.20
14877;DHT22;69691;48.172;17.070;2023-12-07T12:20:35;7.60;77.00
14877;DHT22;69691;48.172;17.070;2023-12-07T12:23:01;7.50;76.80
14877;DHT22;69691;48.172;17.070;2023-12-07T12:25:29;7.40;76.50
14877;DHT22;69691;48.172;17.070;2023-12-07T12:28:02;7.30;76.80
14877;DHT22;69691;48.172;17.070;2023-12-07T12:30:29;7.30;77.80
14877;DHT22;69691;48.172;17.070;2023-12-07T12:32:56;7.40;77.20
14877;DHT22;69691;48.172;17.070;2023-12-07T12:35:22;7.40;77.00
14877;DHT22;69691;48.172;17.070;2023-12-07T12:37:49;7.40;76.90
14877;DHT22;69691;48.172;17.070;2023-12-07T12:40:16;7.40;77.10
14877;DHT22;69691;48.172;17.070;2023-12-07T12:42:45;7.40;76.90
14877;DHT22;69691;48.172;17.070;2023-12-07T12:45:13;7.40;77.00
14877;DHT22;69691;48.172;17.070;2023-12-07T12:47:40;7.40;76.70
14877;DHT22;69691;48.172;17.070;2023-12-07T12:50:07;7.40;76.20
14877;DHT22;69691;48.172;17.070;2023-12-07T12:52:34;7.40;76.60
14877;DHT22;69691;48.172;17.070;2023-12-07T12:54:59;7.30;75.90
14877;DHT22;69691;48.172;17.070;2023-12-07T12:57:25;7.10;76.00
14877;DHT22;69691;48.172;17.070;2023-12-07T12:59:52;7.00;77.30
14877;DHT22;69691;48.172;17.070;2023-12-07T13:02:19;7.00;78.50
14877;DHT22;69691;48.172;17.070;2023-12-07T13:04:46;6.90;77.90
14877;DHT22;69691;48.172;17.070;2023-12-07T13:07:12;7.00;77.90
14877;DHT22;69691;48.172;17.070;2023-12-07T13:09:39;7.00;77.80
14877;DHT22;69691;48.172;17.070;2023-12-07T13:12:06;7.00;77.90
14877;DHT22;69691;48.172;17.070;2023-12-07T13:14:33;6.90;78.30
14877;DHT22;69691;48.172;17.070;2023-12-07T13:17:04;6.70;78.60
14877;DHT22;69691;48.172;17.070;2023-12-07T13:19:30;6.70;79.60
14877;DHT22;69691;48.172;17.070;2023-12-07T13:21:57;6.80;79.20
14877;DHT22;69691;48.172;17.070;2023-12-07T13:24:23;6.80;79.00
14877;DHT22;69691;48.172;17.070;2023-12-07T13:26:48;6.80;79.10
14877;DHT22;69691;48.172;17.070;2023-12-07T13:29:14;6.80;78.60
14877;DHT22;69691;48.172;17.070;2023-12-07T13:31:40;6.80;78.50
14877;DHT22;69691;48.172;17.070;2023-12-07T13:34:06;6.80;78.80
14877;DHT22;69691;48.172;17.070;2023-12-07T13:36:32;6.90;78.90
14877;DHT22;69691;48.172;17.070;2023-12-07T13:38:59;7.00;78.50
14877;DHT22;69691;48.172;17.070;2023-12-07T13:41:28;7.00;78.30
14877;DHT22;69691;48.172;17.070;2023-12-07T13:43:53;6.90;77.50
14877;DHT22;69691;48.172;17.070;2023-12-07T13:46:19;6.90;77.80
14877;DHT22;69691;48.172;17.070;2023-12-07T13:48:46;6.90;78.30
14877;DHT22;69691;48.172;17.070;2023-12-07T13:51:12;6.80;77.90
14877;DHT22;69691;48.172;17.070;2023-12-07T13:53:38;6.80;77.90
14877;DHT22;69691;48.172;17.070;2023-12-07T13:56:05;6.80;78.20
14877;DHT22;69691;48.172;17.070;2023-12-07T13:58:33;6.70;77.70
14877;DHT22;69691;48.172;17.070;2023-12-07T14:01:02;6.70;78.40
14877;DHT22;69691;48.172;17.070;2023-12-07T14:03:28;6.70;78.20
14877;DHT22;69691;48.172;17.070;2023-12-07T14:05:54;6.60;77.80
14877;DHT22;69691;48.172;17.070;2023-12-07T14:08:20;6.60;78.10
14877;DHT22;69691;48.172;17.070;2023-12-07T14:10:46;6.50;78.30
14877;DHT22;69691;48.172;17.070;2023-12-07T14:13:13;6.50;78.10
14877;DHT22;69691;48.172;17.070;2023-12-07T14:15:38;6.40;78.40
14877;DHT22;69691;48.172;17.070;2023-12-07T14:18:04;6.40;79.00
14877;DHT22;69691;48.172;17.070;2023-12-07T14:20:30;6.30;78.80
14877;DHT22;69691;48.172;17.070;2023-12-07T14:22:56;6.30;78.90
14877;DHT22;69691;48.172;17.070;2023-12-07T14:25:23;6.20;79.30
14877;DHT22;69691;48.172;17.070;2023-12-07T14:27:49;6.10;79.60
14877;DHT22;69691;48.172;17.070;2023-12-07T14:30:15;6.00;79.80
14877;DHT22;69691;48.172;17.070;2023-12-07T14:32:43;6.00;80.00
14877;DHT22;69691;48.172;17.070;2023-12-07T14:35:21;5.80;80.00
14877;DHT22;69691;48.172;17.070;2023-12-07T14:37:47;5.70;81.00
14877;DHT22;69691;48.172;17.070;2023-12-07T14:40:14;5.60;81.10
14877;DHT22;69691;48.172;17.070;2023-12-07T14:42:43;5.50;81.60
14877;DHT22;69691;48.172;17.070;2023-12-07T14:45:09;5.40;82.00
14877;DHT22;69691;48.172;17.070;2023-12-07T14:47:35;5.40;82.00
14877;DHT22;69691;48.172;17.070;2023-12-07T14:50:02;5.40;82.40
14877;DHT22;69691;48.172;17.070;2023-12-07T14:52:28;5.30;82.40
14877;DHT22;69691;48.172;17.070;2023-12-07T14:54:54;5.30;82.80
14877;DHT22;69691;48.172;17.070;2023-12-07T14:57:20;5.30;83.10
14877;DHT22;69691;48.172;17.070;2023-12-07T14:59:46;5.30;83.50
14877;DHT22;69691;48.172;17.070;2023-12-07T15:02:13;5.30;83.30
14877;DHT22;69691;48.172;17.070;2023-12-07T15:04:39;5.30;83.50
14877;DHT22;69691;48.172;17.070;2023-12-07T15:07:05;5.20;83.60
14877;DHT22;69691;48.172;17.070;2023-12-07T15:09:31;5.30;84.40
14877;DHT22;69691;48.172;17.070;2023-12-07T15:11:59;5.20;83.90
14877;DHT22;69691;48.172;17.070;2023-12-07T15:14:25;5.20;84.30
14877;DHT22;69691;48.172;17.070;2023-12-07T15:16:50;5.30;84.30
14877;DHT22;69691;48.172;17.070;2023-12-07T15:19:19;5.20;83.90
14877;DHT22;69691;48.172;17.070;2023-12-07T15:21:45;5.20;84.20
14877;DHT22;69691;48.172;17.070;2023-12-07T15:24:11;5.10;84.40
14877;DHT22;69691;48.172;17.070;2023-12-07T15:26:41;5.20;84.50
14877;DHT22;69691;48.172;17.070;2023-12-07T15:29:09;5.20;84.60
14877;DHT22;69691;48.172;17.070;2023-12-07T15:31:35;5.30;85.40
14877;DHT22;69691;48.172;17.070;2023-12-07T15:34:01;5.20;84.60
14877;DHT22;69691;48.172;17.070;2023-12-07T15:36:27;5.20;85.00
14877;DHT22;69691;48.172;17.070;2023-12-07T15:38:52;5.10;85.30